createdAt,value
2019-01-18T00:01:18.850Z,1.80
2019-01-18T00:03:48.670Z,1.73
2019-01-18T00:06:18.141Z,0.90
2019-01-18T00:08:52.655Z,1.00
2019-01-18T00:11:22.266Z,1.30
2019-01-18T00:13:51.469Z,1.00
2019-01-18T00:16:21.075Z,1.00
2019-01-18T00:18:50.442Z,0.80
2019-01-18T00:21:20.078Z,0.60
2019-01-18T00:23:49.487Z,0.70
2019-01-18T00:26:18.727Z,0.90
2019-01-18T00:28:48.284Z,0.70
2019-01-18T00:31:17.688Z,0.70
2019-01-18T00:33:46.936Z,0.60
2019-01-18T00:36:16.474Z,0.90
2019-01-18T00:38:46.965Z,0.77
2019-01-18T00:41:17.472Z,1.30
2019-01-18T00:43:47.284Z,0.70
2019-01-18T00:46:17.120Z,0.90
2019-01-18T00:48:47.384Z,1.10
2019-01-18T00:51:16.498Z,0.87
2019-01-18T00:53:45.737Z,1.00
2019-01-18T00:56:16.475Z,0.80
2019-01-18T00:58:48.129Z,0.83
2019-01-18T01:01:17.605Z,0.90
2019-01-18T01:03:50.845Z,0.97
2019-01-18T01:06:21.072Z,1.40
2019-01-18T01:08:51.446Z,1.60
2019-01-18T01:11:21.479Z,1.40
2019-01-18T01:13:51.533Z,0.80
2019-01-18T01:16:21.125Z,1.00
2019-01-18T01:18:50.730Z,0.90
2019-01-18T01:21:20.120Z,0.80
2019-01-18T01:23:50.060Z,0.80
2019-01-18T01:26:19.538Z,0.60
2019-01-18T01:28:49.015Z,0.87
2019-01-18T01:31:18.611Z,0.70
2019-01-18T01:33:48.092Z,0.90
2019-01-18T01:36:18.509Z,0.60
2019-01-18T01:38:50.572Z,0.70
2019-01-18T01:41:20.315Z,0.70
2019-01-18T01:43:49.916Z,0.70
2019-01-18T01:46:19.476Z,0.70
2019-01-18T01:48:48.823Z,0.80
2019-01-18T01:51:18.447Z,0.70
2019-01-18T01:53:47.938Z,0.70
2019-01-18T01:56:17.679Z,0.70
2019-01-18T01:58:47.739Z,0.73
2019-01-18T02:01:17.478Z,0.83
2019-01-18T02:03:46.857Z,1.00
2019-01-18T02:06:17.701Z,0.80
2019-01-18T02:08:47.948Z,0.90
2019-01-18T02:11:17.546Z,0.87
2019-01-18T02:13:46.876Z,1.43
2019-01-18T02:16:16.278Z,0.90
2019-01-18T02:18:45.615Z,1.00
2019-01-18T02:21:15.225Z,1.60
2019-01-18T02:23:44.913Z,6.90
2019-01-18T02:26:14.539Z,1.00
2019-01-18T02:28:44.204Z,2.00
2019-01-18T02:31:13.675Z,1.00
2019-01-18T02:33:43.354Z,0.80
2019-01-18T02:36:13.851Z,1.07
2019-01-18T02:38:44.561Z,1.23
2019-01-18T02:41:14.126Z,0.93
2019-01-18T02:43:43.460Z,0.90
2019-01-18T02:46:13.282Z,1.83
2019-01-18T02:48:42.712Z,0.80
2019-01-18T02:51:12.418Z,0.87
2019-01-18T02:53:41.922Z,1.17
2019-01-18T02:56:11.360Z,1.33
2019-01-18T02:58:41.543Z,1.03
2019-01-18T03:01:11.276Z,1.00
2019-01-18T03:03:40.850Z,0.80
2019-01-18T03:06:10.162Z,1.23
2019-01-18T03:08:39.526Z,1.30
2019-01-18T03:11:09.776Z,1.30
2019-01-18T03:13:39.524Z,1.10
2019-01-18T03:16:08.899Z,0.90
2019-01-18T03:18:38.606Z,0.80
2019-01-18T03:21:09.513Z,0.80
2019-01-18T03:23:39.396Z,0.80
2019-01-18T03:26:09.140Z,1.00
2019-01-18T03:28:39.710Z,0.90
2019-01-18T03:31:09.283Z,0.80
2019-01-18T03:33:40.364Z,1.00
2019-01-18T03:36:10.910Z,1.00
2019-01-18T03:38:42.636Z,1.00
2019-01-18T03:41:13.479Z,0.90
2019-01-18T03:43:42.947Z,0.97
2019-01-18T03:46:12.568Z,0.90
2019-01-18T03:48:41.844Z,1.20
2019-01-18T03:51:12.347Z,1.23
2019-01-18T03:53:41.667Z,1.17
2019-01-18T03:56:10.914Z,0.93
2019-01-18T03:58:40.482Z,1.10
2019-01-18T04:01:10.904Z,1.13
2019-01-18T04:03:41.578Z,1.23
2019-01-18T04:06:11.113Z,1.30
2019-01-18T04:08:41.722Z,1.13
2019-01-18T04:11:11.287Z,1.50
2019-01-18T04:13:41.516Z,1.50
2019-01-18T04:16:11.140Z,1.60
2019-01-18T04:18:41.906Z,1.50
2019-01-18T04:21:11.291Z,1.30
2019-01-18T04:23:41.513Z,1.60
2019-01-18T04:26:11.916Z,1.23
2019-01-18T04:28:41.583Z,1.50
2019-01-18T04:31:11.586Z,1.60
2019-01-18T04:33:41.135Z,1.70
2019-01-18T04:36:11.421Z,2.20
2019-01-18T04:38:42.538Z,9.50
2019-01-18T04:41:11.808Z,2.23
2019-01-18T04:43:41.547Z,1.60
2019-01-18T04:46:11.769Z,1.70
2019-01-18T04:48:41.171Z,1.60
2019-01-18T04:51:10.795Z,1.43
2019-01-18T04:53:40.443Z,1.50
2019-01-18T04:56:09.918Z,1.60
2019-01-18T04:58:40.061Z,1.40
2019-01-18T05:01:09.308Z,1.50
2019-01-18T05:03:39.442Z,1.70
2019-01-18T05:06:08.931Z,1.80
2019-01-18T05:08:45.531Z,1.40
2019-01-18T05:11:15.087Z,1.40
2019-01-18T05:13:44.410Z,1.50
2019-01-18T05:16:14.234Z,1.60
2019-01-18T05:18:43.740Z,1.80
2019-01-18T05:21:14.398Z,1.77
2019-01-18T05:23:43.899Z,1.53
2019-01-18T05:26:13.314Z,1.80
2019-01-18T05:28:42.927Z,1.90
2019-01-18T05:31:12.534Z,1.90
2019-01-18T05:33:42.883Z,1.93
2019-01-18T05:36:13.117Z,1.80
2019-01-18T05:38:42.488Z,1.60
2019-01-18T05:41:13.928Z,3.27
2019-01-18T05:43:43.446Z,1.70
2019-01-18T05:46:13.508Z,1.97
2019-01-18T05:48:43.051Z,1.90
2019-01-18T05:51:12.487Z,2.17
2019-01-18T05:53:42.207Z,1.90
2019-01-18T05:56:13.183Z,1.63
2019-01-18T05:58:43.982Z,1.70
2019-01-18T06:01:13.939Z,1.97
2019-01-18T06:03:43.387Z,1.60
2019-01-18T06:06:13.227Z,1.90
2019-01-18T06:08:44.033Z,2.37
2019-01-18T06:11:13.453Z,2.00
2019-01-18T06:13:43.381Z,1.67
2019-01-18T06:16:13.132Z,2.00
2019-01-18T06:18:42.668Z,1.50
2019-01-18T06:21:12.418Z,1.60
2019-01-18T06:23:41.810Z,1.77
2019-01-18T06:26:11.544Z,1.77
2019-01-18T06:28:41.368Z,1.60
2019-01-18T06:31:11.293Z,1.67
2019-01-18T06:33:41.098Z,1.80
2019-01-18T06:36:10.552Z,1.70
2019-01-18T06:38:40.260Z,1.50
2019-01-18T06:41:11.050Z,3.07
2019-01-18T06:43:41.748Z,1.73
2019-01-18T06:46:11.146Z,1.70
2019-01-18T06:48:40.775Z,1.57
2019-01-18T06:51:10.422Z,1.30
2019-01-18T06:53:40.004Z,1.60
2019-01-18T06:56:09.652Z,1.70
2019-01-18T06:58:39.253Z,1.60
2019-01-18T07:01:10.269Z,1.20
2019-01-18T07:03:40.035Z,1.57
2019-01-18T07:06:10.779Z,1.30
2019-01-18T07:08:41.980Z,1.30
2019-01-18T07:11:12.433Z,1.50
2019-01-18T07:13:42.055Z,1.30
2019-01-18T07:16:11.883Z,1.83
2019-01-18T07:18:43.912Z,1.40
2019-01-18T07:21:14.416Z,1.40
2019-01-18T07:23:45.960Z,1.60
2019-01-18T07:26:15.781Z,1.50
2019-01-18T07:28:49.719Z,1.87
2019-01-18T07:31:19.215Z,1.80
2019-01-18T07:33:48.727Z,1.83
2019-01-18T07:36:18.286Z,1.50
2019-01-18T07:38:49.716Z,1.47
2019-01-18T07:41:19.584Z,1.40
2019-01-18T07:43:50.085Z,1.80
2019-01-18T07:46:20.018Z,1.73
2019-01-18T07:48:50.770Z,1.70
2019-01-18T07:51:21.310Z,1.60
2019-01-18T07:53:54.644Z,1.60
2019-01-18T07:56:25.035Z,1.50
2019-01-18T07:58:54.553Z,1.73
2019-01-18T08:01:24.063Z,1.70
2019-01-18T08:03:53.670Z,1.63
2019-01-18T08:06:23.161Z,1.30
2019-01-18T08:08:53.838Z,1.43
2019-01-18T08:11:23.416Z,1.53
2019-01-18T08:13:52.908Z,1.30
2019-01-18T08:16:22.694Z,1.30
2019-01-18T08:18:52.599Z,1.40
2019-01-18T08:21:22.360Z,1.30
2019-01-18T08:23:52.075Z,1.40
2019-01-18T08:26:22.856Z,1.50
2019-01-18T08:28:52.714Z,1.40
2019-01-18T08:31:28.595Z,1.40
2019-01-18T08:33:52.946Z,1.50
2019-01-18T08:36:24.264Z,1.20
2019-01-18T08:38:55.125Z,1.20
2019-01-18T08:41:27.824Z,1.67
2019-01-18T08:43:57.551Z,1.47
2019-01-18T08:46:27.071Z,1.40
2019-01-18T08:48:57.417Z,1.70
2019-01-18T08:51:26.874Z,1.43
2019-01-18T08:53:56.971Z,1.50
2019-01-18T08:56:26.452Z,1.37
2019-01-18T08:58:55.942Z,1.60
2019-01-18T09:01:26.701Z,1.30
2019-01-18T09:03:56.730Z,1.43
2019-01-18T09:06:26.428Z,1.13
2019-01-18T09:08:56.622Z,1.50
2019-01-18T09:11:26.441Z,1.40
2019-01-18T09:13:59.883Z,1.30
2019-01-18T09:16:28.140Z,1.50
2019-01-18T09:18:57.866Z,1.53
2019-01-18T09:21:28.211Z,1.50
2019-01-18T09:23:57.471Z,1.70
2019-01-18T09:26:27.929Z,1.60
2019-01-18T09:28:57.987Z,1.63
2019-01-18T09:31:27.738Z,1.47
2019-01-18T09:33:58.119Z,1.40
2019-01-18T09:36:27.651Z,1.43
2019-01-18T09:38:57.364Z,1.40
2019-01-18T09:41:27.328Z,1.27
2019-01-18T09:43:57.482Z,1.30
2019-01-18T09:46:28.066Z,1.30
2019-01-18T09:48:57.426Z,1.20
2019-01-18T09:51:26.888Z,1.37
2019-01-18T09:53:56.269Z,1.50
2019-01-18T09:56:25.668Z,1.33
2019-01-18T09:58:55.942Z,1.10
2019-01-18T10:01:25.533Z,1.30
2019-01-18T10:03:56.368Z,1.50
2019-01-18T10:06:25.911Z,1.50
2019-01-18T10:08:55.657Z,1.20
2019-01-18T10:11:25.242Z,1.30
2019-01-18T10:13:55.560Z,1.70
2019-01-18T10:16:25.272Z,1.23
2019-01-18T10:18:54.744Z,1.30
2019-01-18T10:21:24.302Z,1.43
2019-01-18T10:23:53.627Z,1.60
2019-01-18T10:26:23.279Z,1.70
2019-01-18T10:28:52.839Z,1.40
2019-01-18T10:31:23.361Z,1.80
2019-01-18T10:33:53.763Z,1.60
2019-01-18T10:36:24.083Z,1.73
2019-01-18T10:38:54.635Z,1.80
2019-01-18T10:41:24.939Z,1.63
2019-01-18T10:43:54.535Z,2.30
2019-01-18T10:46:23.970Z,2.00
2019-01-18T10:48:55.082Z,1.90
2019-01-18T10:51:25.415Z,2.03
2019-01-18T10:53:55.545Z,1.87
2019-01-18T10:56:27.089Z,2.20
2019-01-18T10:58:57.196Z,2.37
2019-01-18T11:01:26.679Z,2.10
2019-01-18T11:03:56.191Z,2.40
2019-01-18T11:06:25.920Z,2.30
2019-01-18T11:08:55.630Z,2.33
2019-01-18T11:11:25.217Z,2.17
2019-01-18T11:13:54.511Z,2.40
2019-01-18T11:16:24.114Z,2.10
2019-01-18T11:18:53.278Z,1.70
2019-01-18T11:21:23.659Z,2.00
2019-01-18T11:23:53.025Z,1.80
2019-01-18T11:26:22.336Z,2.07
2019-01-18T11:28:51.892Z,1.77
2019-01-18T11:31:23.384Z,1.97
2019-01-18T11:33:52.128Z,2.10
2019-01-18T11:36:21.474Z,2.50
2019-01-18T11:38:51.471Z,2.23
2019-01-18T11:41:21.012Z,2.20
2019-01-18T11:43:50.368Z,2.47
2019-01-18T11:46:19.685Z,2.37
2019-01-18T11:48:50.382Z,2.23
2019-01-18T11:51:19.946Z,2.20
2019-01-18T11:53:49.239Z,2.20
2019-01-18T11:56:18.727Z,2.07
2019-01-18T11:58:48.124Z,2.67
2019-01-18T12:01:18.573Z,2.53
2019-01-18T12:03:47.899Z,2.37
2019-01-18T12:06:17.342Z,2.90
2019-01-18T12:08:47.833Z,2.53
2019-01-18T12:11:17.054Z,2.23
2019-01-18T12:13:47.552Z,2.27
2019-01-18T12:16:17.223Z,2.23
2019-01-18T12:18:46.861Z,2.30
2019-01-18T12:21:16.079Z,2.30
2019-01-18T12:23:45.652Z,2.90
2019-01-18T12:26:15.260Z,2.23
2019-01-18T12:28:44.495Z,1.97
2019-01-18T12:31:13.853Z,2.17
2019-01-18T12:33:43.274Z,2.70
2019-01-18T12:36:12.623Z,2.40
2019-01-18T12:38:42.400Z,2.30
2019-01-18T12:41:11.749Z,2.27
2019-01-18T12:43:41.098Z,2.90
2019-01-18T12:46:10.380Z,2.50
2019-01-18T12:48:39.674Z,2.60
2019-01-18T12:51:11.787Z,2.37
2019-01-18T12:53:41.342Z,2.33
2019-01-18T12:56:12.081Z,2.60
2019-01-18T12:58:41.740Z,2.53
2019-01-18T13:01:11.322Z,2.37
2019-01-18T13:03:40.809Z,2.50
2019-01-18T13:06:11.486Z,2.40
2019-01-18T13:08:41.137Z,2.67
2019-01-18T13:11:10.678Z,2.33
2019-01-18T13:13:40.186Z,2.60
2019-01-18T13:16:11.539Z,2.50
2019-01-18T13:18:40.955Z,2.50
2019-01-18T13:21:10.587Z,2.20
2019-01-18T13:23:40.955Z,2.47
2019-01-18T13:26:10.230Z,2.80
2019-01-18T13:28:40.356Z,2.10
2019-01-18T13:31:11.160Z,2.20
2019-01-18T13:33:42.179Z,2.20
2019-01-18T13:36:13.983Z,2.30
2019-01-18T13:38:43.354Z,2.30
2019-01-18T13:41:13.131Z,2.03
2019-01-18T13:43:42.623Z,2.30
2019-01-18T13:46:12.025Z,2.47
2019-01-18T13:48:41.228Z,2.40
2019-01-18T13:51:10.916Z,2.20
2019-01-18T13:53:40.429Z,2.10
2019-01-18T13:56:09.870Z,2.13
2019-01-18T13:58:39.189Z,2.10
2019-01-18T14:01:09.437Z,2.30
2019-01-18T14:03:39.021Z,2.20
2019-01-18T14:06:08.398Z,2.17
2019-01-18T14:08:37.977Z,2.40
2019-01-18T14:11:07.587Z,2.40
2019-01-18T14:13:37.570Z,2.80
2019-01-18T14:16:07.145Z,2.40
2019-01-18T14:18:38.981Z,3.20
2019-01-18T14:21:08.395Z,2.80
2019-01-18T14:23:37.975Z,3.30
2019-01-18T14:26:07.352Z,3.30
2019-01-18T14:28:37.078Z,2.80
2019-01-18T14:31:06.739Z,3.30
2019-01-18T14:33:36.358Z,3.33
2019-01-18T14:36:05.802Z,3.70
2019-01-18T14:38:35.492Z,4.27
2019-01-18T14:41:06.183Z,3.70
2019-01-18T14:43:36.680Z,3.83
2019-01-18T14:46:06.985Z,4.10
2019-01-18T14:48:37.319Z,3.60
2019-01-18T14:51:06.826Z,3.70
2019-01-18T14:53:36.359Z,3.47
2019-01-18T14:56:05.913Z,4.60
2019-01-18T14:58:35.368Z,3.73
2019-01-18T15:01:04.841Z,4.17
2019-01-18T15:03:34.779Z,3.53
2019-01-18T15:06:04.392Z,3.67
2019-01-18T15:08:35.078Z,4.30
2019-01-18T15:11:05.562Z,4.27
2019-01-18T15:13:35.426Z,4.27
2019-01-18T15:16:05.295Z,3.70
2019-01-18T15:18:34.874Z,4.13
2019-01-18T15:21:05.605Z,4.00
2019-01-18T15:23:35.124Z,3.90
2019-01-18T15:26:04.494Z,3.63
2019-01-18T15:28:34.154Z,3.93
2019-01-18T15:31:03.777Z,3.60
2019-01-18T15:33:33.285Z,3.67
2019-01-18T15:36:03.127Z,3.90
2019-01-18T15:38:32.755Z,4.10
2019-01-18T15:41:02.360Z,4.10
2019-01-18T15:43:31.758Z,3.83
2019-01-18T15:46:01.416Z,3.60
2019-01-18T15:48:30.977Z,4.20
2019-01-18T15:51:00.744Z,3.87
2019-01-18T15:53:30.161Z,3.90
2019-01-18T15:56:01.250Z,3.83
2019-01-18T15:58:30.515Z,3.63
2019-01-18T16:01:00.026Z,3.73
2019-01-18T16:03:30.078Z,3.60
2019-01-18T16:06:02.356Z,3.67
2019-01-18T16:08:31.806Z,4.40
2019-01-18T16:11:01.410Z,3.30
2019-01-18T16:13:30.999Z,3.17
2019-01-18T16:16:01.004Z,3.53
2019-01-18T16:18:30.586Z,3.50
2019-01-18T16:21:00.143Z,2.83
2019-01-18T16:23:31.005Z,3.80
2019-01-18T16:26:00.684Z,3.83
2019-01-18T16:28:30.386Z,3.90
2019-01-18T16:30:59.971Z,3.73
2019-01-18T16:33:29.264Z,3.80
2019-01-18T16:35:58.964Z,3.97
2019-01-18T16:38:28.806Z,3.60
2019-01-18T16:40:58.443Z,4.30
2019-01-18T16:43:29.149Z,3.70
2019-01-18T16:45:58.811Z,3.40
2019-01-18T16:48:29.227Z,2.70
2019-01-18T16:50:59.067Z,2.57
2019-01-18T16:53:28.738Z,2.30
2019-01-18T16:55:58.532Z,2.60
2019-01-18T16:58:27.819Z,2.67
2019-01-18T17:00:57.615Z,2.83
2019-01-18T17:03:30.669Z,2.43
2019-01-18T17:05:56.811Z,2.40
2019-01-18T17:08:26.487Z,2.60
2019-01-18T17:10:56.058Z,2.90
2019-01-18T17:13:25.533Z,2.57
2019-01-18T17:15:54.828Z,2.13
2019-01-18T17:18:24.786Z,2.40
2019-01-18T17:20:54.990Z,2.30
2019-01-18T17:23:24.683Z,2.87
2019-01-18T17:25:55.292Z,2.43
2019-01-18T17:28:24.589Z,2.10
2019-01-18T17:30:53.992Z,2.40
2019-01-18T17:33:23.471Z,2.60
2019-01-18T17:35:54.426Z,2.50
2019-01-18T17:38:25.087Z,2.57
2019-01-18T17:40:56.976Z,2.20
2019-01-18T17:43:33.834Z,2.40
2019-01-18T17:46:10.578Z,2.43
2019-01-18T17:48:58.935Z,2.30
2019-01-18T17:51:49.448Z,2.27
2019-01-18T17:54:33.867Z,2.37
2019-01-18T18:00:13.570Z,2.93
2019-01-18T18:02:59.631Z,2.67
2019-01-18T18:08:40.475Z,2.83
2019-01-18T18:11:18.962Z,2.70
2019-01-18T18:13:55.391Z,2.20
2019-01-18T18:16:45.823Z,2.37
2019-01-18T18:19:28.223Z,2.43
2019-01-18T18:22:06.801Z,2.33
2019-01-18T18:27:41.264Z,2.80
2019-01-18T18:30:11.308Z,2.70
2019-01-18T18:33:03.017Z,2.33
2019-01-18T18:35:42.216Z,2.20
2019-01-18T18:38:22.567Z,2.50
2019-01-18T18:41:09.465Z,2.40
2019-01-18T18:46:43.593Z,3.10
2019-01-18T18:49:17.101Z,2.67
2019-01-18T18:52:12.703Z,2.43
2019-01-18T18:54:48.203Z,2.27
2019-01-18T18:57:24.395Z,2.40
2019-01-18T19:00:11.570Z,2.33
2019-01-18T19:02:59.712Z,2.93
2019-01-18T19:05:43.177Z,2.30
2019-01-18T19:11:46.635Z,2.90
2019-01-18T19:17:32.024Z,2.77
2019-01-18T19:20:20.656Z,2.73
2019-01-18T19:22:55.402Z,2.77
2019-01-18T19:25:44.967Z,2.40
2019-01-18T19:28:23.880Z,2.33
2019-01-18T19:31:00.021Z,2.60
2019-01-18T19:33:35.358Z,3.03
2019-01-18T19:36:18.284Z,2.33
2019-01-18T19:39:04.727Z,2.33
2019-01-18T19:41:44.085Z,2.50
2019-01-18T19:44:18.632Z,2.30
2019-01-18T19:47:04.454Z,2.50
2019-01-18T19:52:46.168Z,2.90
2019-01-18T19:55:23.649Z,2.77
2019-01-18T19:58:11.416Z,3.00
2019-01-18T20:00:54.008Z,3.90
2019-01-18T20:03:28.074Z,3.07
2019-01-18T20:06:23.028Z,2.37
2019-01-18T20:09:00.128Z,2.50
2019-01-18T20:14:50.363Z,2.70
2019-01-18T20:20:34.074Z,3.20
2019-01-18T20:23:26.010Z,3.07
2019-01-18T20:26:00.933Z,2.63
2019-01-18T20:28:50.915Z,2.70
2019-01-18T20:31:37.755Z,3.60
2019-01-18T20:34:32.387Z,3.47
2019-01-18T20:37:19.298Z,3.93
2019-01-18T20:39:56.229Z,2.57
2019-01-18T20:42:58.948Z,3.13
2019-01-18T20:46:02.081Z,3.00
2019-01-18T20:51:36.789Z,2.93
2019-01-18T20:54:31.622Z,2.37
2019-01-18T20:57:05.227Z,2.63
2019-01-18T20:59:35.807Z,2.37
2019-01-18T21:02:10.342Z,2.60
2019-01-18T21:04:44.281Z,2.67
2019-01-18T21:07:18.099Z,2.30
2019-01-18T21:10:07.328Z,2.83
2019-01-18T21:16:00.428Z,2.87
2019-01-18T21:21:59.677Z,2.73
2019-01-18T21:24:32.010Z,2.30
2019-01-18T21:27:06.558Z,2.67
2019-01-18T21:29:39.932Z,2.43
2019-01-18T21:32:11.456Z,2.70
2019-01-18T21:34:50.127Z,5.27
2019-01-18T21:37:24.703Z,2.77
2019-01-18T21:40:02.146Z,2.23
2019-01-18T21:43:03.706Z,2.27
2019-01-18T21:45:36.629Z,2.37
2019-01-18T21:48:14.956Z,2.40
2019-01-18T21:51:00.356Z,2.37
2019-01-18T21:56:45.342Z,2.50
2019-01-18T21:59:19.266Z,14.43
2019-01-18T22:01:50.900Z,4.97
2019-01-18T22:04:22.517Z,2.87
2019-01-18T22:06:53.592Z,2.20
2019-01-18T22:09:27.816Z,2.33
2019-01-18T22:11:58.658Z,2.40
2019-01-18T22:14:34.236Z,2.37
2019-01-18T22:17:12.921Z,2.73
2019-01-18T22:23:02.952Z,3.03
2019-01-18T22:28:54.019Z,2.73
2019-01-18T22:34:34.333Z,2.87
2019-01-18T22:37:27.093Z,2.27
2019-01-18T22:40:00.582Z,2.27
2019-01-18T22:42:33.709Z,2.10
2019-01-18T22:45:11.217Z,2.37
2019-01-18T22:50:57.474Z,2.77
2019-01-18T22:53:42.942Z,2.13
2019-01-18T22:56:31.684Z,2.10
2019-01-18T22:59:24.345Z,2.00
2019-01-18T23:02:00.678Z,2.10
2019-01-18T23:04:32.880Z,2.10
2019-01-18T23:07:17.319Z,2.20
2019-01-18T23:10:03.023Z,2.20
2019-01-18T23:12:48.717Z,2.03
2019-01-18T23:18:20.276Z,2.60
2019-01-18T23:21:12.320Z,2.23
2019-01-18T23:23:49.179Z,2.37
2019-01-18T23:26:43.743Z,2.33
2019-01-18T23:29:16.534Z,2.23
2019-01-18T23:32:10.671Z,2.20
2019-01-18T23:34:50.539Z,1.73
2019-01-18T23:40:25.360Z,2.60
2019-01-18T23:43:21.614Z,2.37
2019-01-18T23:46:15.887Z,2.00
2019-01-18T23:48:49.258Z,2.20
2019-01-18T23:54:28.442Z,2.60
2019-01-18T23:57:04.393Z,2.10
2019-01-18T23:59:40.814Z,1.73
